Pelagic Express — HOSN — position and weather

sailwx.info

Track history (hours):
 
Tides and Currents Weather Stations Pressure Air Temp Water Temp Dewpoint Dewpoint Depression Visibility Wind Speed Wind Dir Waves Ship Positions

Pelagic Express

Last reported at 2018-Feb-22 03:11 UTC. Time now 2018-Feb-25 21:30 UTC.
Position N 26°05' W 079°28'.

Length 81 m; draft 3.4 m.

Type: Cargo ship. MMSI: 372804000.

Date/timePositionNaut miles runAvg speedWind from/ knotsBaromVisibWave heightAir tempDewpointWater temp
2018-Feb-22 03:11N 26°05' W 079°28'3 9.5
2018-Feb-22 02:55N 26°05' W 079°31'4 9.6
2018-Feb-22 02:30N 26°05' W 079°36'5 9.5
2018-Feb-22 02:00N 26°05' W 079°41'5 9.3
2018-Feb-22 01:29N 26°05' W 079°46'4 9.1
2018-Feb-22 01:00N 26°05' W 079°51'5 9.5
2018-Feb-22 00:30N 26°04' W 079°56'5 9.3
2018-Feb-22 00:00N 26°04' W 080°01'4 9.0
2018-Feb-21 23:31N 26°06' W 080°06'1 1.6
2018-Feb-21 23:00N 26°05' W 080°07'0 0.0
2018-Feb-21 22:30N 26°05' W 080°07'0 0.0
2018-Feb-21 22:00N 26°05' W 080°07'0 0.0
2018-Feb-21 21:30N 26°05' W 080°07'0 0.0
2018-Feb-21 21:00N 26°05' W 080°07'0 0.0
2018-Feb-21 20:30N 26°05' W 080°07'0 0.0
2018-Feb-21 20:00N 26°05' W 080°07'0 0.0
2018-Feb-21 19:30N 26°05' W 080°07'0 0.0
2018-Feb-21 19:00N 26°05' W 080°07'0 0.0
2018-Feb-21 18:30N 26°05' W 080°07'0 0.0
2018-Feb-21 18:00N 26°05' W 080°07'0 0.0
2018-Feb-21 17:30N 26°05' W 080°07'0 0.0
2018-Feb-21 17:00N 26°05' W 080°07'0 0.0
2018-Feb-21 16:30N 26°05' W 080°07'0 0.0
2018-Feb-21 16:00N 26°05' W 080°07'0 0.0
2018-Feb-21 15:30N 26°05' W 080°07'0 0.0
2018-Feb-21 15:00N 26°05' W 080°07'0 0.0
2018-Feb-21 14:30N 26°05' W 080°07'0 0.0
2018-Feb-21 14:00N 26°05' W 080°07'0 0.0
2018-Feb-21 13:30N 26°05' W 080°07'0 0.0
2018-Feb-21 13:00N 26°05' W 080°07'0 0.1
2018-Feb-21 12:31N 26°05' W 080°07'3 5.8
2018-Feb-21 12:00N 26°05' W 080°04'3 5.3
2018-Feb-21 11:30N 26°04' W 080°01'4 7.7
2018-Feb-21 11:00N 26°04' W 079°57'4 7.8
2018-Feb-21 10:29N 26°04' W 079°52'4 7.8
2018-Feb-21 10:00N 26°04' W 079°48'4 7.2
2018-Feb-21 09:30N 26°04' W 079°44'4 7.2
2018-Feb-21 09:00N 26°05' W 079°40'4 8.1
2018-Feb-21 08:30N 26°04' W 079°36'  
2018-Feb-15 01:18N 26°06' W 079°30'310.3
2018-Feb-15 01:01N 26°06' W 079°33'510.1
2018-Feb-15 00:30N 26°06' W 079°39'510.5
2018-Feb-15 00:00N 26°05' W 079°45'5 9.6
2018-Feb-14 23:31N 26°05' W 079°50'5 9.5
2018-Feb-14 23:01N 26°05' W 079°55'5 9.8
2018-Feb-14 22:31N 26°05' W 080°01'4 8.4
2018-Feb-14 22:01N 26°05' W 080°05'2 3.3
2018-Feb-14 21:30N 26°05' W 080°07'0 0.0
2018-Feb-14 21:00N 26°05' W 080°07'0 0.0
2018-Feb-14 20:30N 26°05' W 080°07'0 0.0
2018-Feb-14 20:00N 26°05' W 080°07'0 0.0
2018-Feb-14 19:30N 26°05' W 080°07'0 0.0
2018-Feb-14 19:00N 26°05' W 080°07'0 0.0
2018-Feb-14 18:30N 26°05' W 080°07'0 0.0
2018-Feb-14 18:00N 26°05' W 080°07'0 0.0
2018-Feb-14 17:30N 26°05' W 080°07'0 0.0
2018-Feb-14 17:00N 26°05' W 080°07'0 0.0
2018-Feb-14 16:30N 26°05' W 080°07'0 0.0
2018-Feb-14 16:00N 26°05' W 080°07'0 0.0
2018-Feb-14 15:30N 26°05' W 080°07'0 0.0
2018-Feb-14 15:00N 26°05' W 080°07'0 0.0
2018-Feb-14 14:30N 26°05' W 080°07'0 0.0
2018-Feb-14 14:00N 26°05' W 080°07'0 0.0
2018-Feb-14 13:30N 26°05' W 080°07'0 0.0
2018-Feb-14 13:00N 26°05' W 080°07'0 0.3
2018-Feb-14 12:31N 26°05' W 080°07'3 6.2
2018-Feb-14 12:00N 26°05' W 080°04'3 5.5
2018-Feb-14 11:31N 26°06' W 080°01'4 7.9
2018-Feb-14 11:00N 26°04' W 079°56'5 9.8
2018-Feb-14 10:30N 26°04' W 079°51'510.1
2018-Feb-14 10:00N 26°04' W 079°45'510.2
2018-Feb-14 09:30N 26°04' W 079°40'510.1
2018-Feb-14 09:00N 26°04' W 079°34'  
Track history (hours):
 
Tides and Currents Weather Stations Pressure Air Temp Water Temp Dewpoint Dewpoint Depression Visibility Wind Speed Wind Dir Waves Ship Positions

Pelagic Express

Last reported at 2018-Feb-22 03:11 UTC. Time now 2018-Feb-25 21:30 UTC.
Position N 26°05' W 079°28'.

Length 81 m; draft 3.4 m.

Type: Cargo ship. MMSI: 372804000.

Date/timePositionNaut miles runAvg speedWind from/ knotsBaromVisibWave heightAir tempDewpointWater temp
2018-Feb-22 03:11N 26°05' W 079°28'3 9.5
2018-Feb-22 02:55N 26°05' W 079°31'4 9.6
2018-Feb-22 02:30N 26°05' W 079°36'5 9.5
2018-Feb-22 02:00N 26°05' W 079°41'5 9.3
2018-Feb-22 01:29N 26°05' W 079°46'4 9.1
2018-Feb-22 01:00N 26°05' W 079°51'5 9.5
2018-Feb-22 00:30N 26°04' W 079°56'5 9.3
2018-Feb-22 00:00N 26°04' W 080°01'4 9.0
2018-Feb-21 23:31N 26°06' W 080°06'1 1.6
2018-Feb-21 23:00N 26°05' W 080°07'0 0.0
2018-Feb-21 22:30N 26°05' W 080°07'0 0.0
2018-Feb-21 22:00N 26°05' W 080°07'0 0.0
2018-Feb-21 21:30N 26°05' W 080°07'0 0.0
2018-Feb-21 21:00N 26°05' W 080°07'0 0.0
2018-Feb-21 20:30N 26°05' W 080°07'0 0.0
2018-Feb-21 20:00N 26°05' W 080°07'0 0.0
2018-Feb-21 19:30N 26°05' W 080°07'0 0.0
2018-Feb-21 19:00N 26°05' W 080°07'0 0.0
2018-Feb-21 18:30N 26°05' W 080°07'0 0.0
2018-Feb-21 18:00N 26°05' W 080°07'0 0.0
2018-Feb-21 17:30N 26°05' W 080°07'0 0.0
2018-Feb-21 17:00N 26°05' W 080°07'0 0.0
2018-Feb-21 16:30N 26°05' W 080°07'0 0.0
2018-Feb-21 16:00N 26°05' W 080°07'0 0.0
2018-Feb-21 15:30N 26°05' W 080°07'0 0.0
2018-Feb-21 15:00N 26°05' W 080°07'0 0.0
2018-Feb-21 14:30N 26°05' W 080°07'0 0.0
2018-Feb-21 14:00N 26°05' W 080°07'0 0.0
2018-Feb-21 13:30N 26°05' W 080°07'0 0.0
2018-Feb-21 13:00N 26°05' W 080°07'0 0.1
2018-Feb-21 12:31N 26°05' W 080°07'3 5.8
2018-Feb-21 12:00N 26°05' W 080°04'3 5.3
2018-Feb-21 11:30N 26°04' W 080°01'4 7.7
2018-Feb-21 11:00N 26°04' W 079°57'4 7.8
2018-Feb-21 10:29N 26°04' W 079°52'4 7.8
2018-Feb-21 10:00N 26°04' W 079°48'4 7.2
2018-Feb-21 09:30N 26°04' W 079°44'4 7.2
2018-Feb-21 09:00N 26°05' W 079°40'4 8.1
2018-Feb-21 08:30N 26°04' W 079°36'  
2018-Feb-15 01:18N 26°06' W 079°30'310.3
2018-Feb-15 01:01N 26°06' W 079°33'510.1
2018-Feb-15 00:30N 26°06' W 079°39'510.5
2018-Feb-15 00:00N 26°05' W 079°45'5 9.6
2018-Feb-14 23:31N 26°05' W 079°50'5 9.5
2018-Feb-14 23:01N 26°05' W 079°55'5 9.8
2018-Feb-14 22:31N 26°05' W 080°01'4 8.4
2018-Feb-14 22:01N 26°05' W 080°05'2 3.3
2018-Feb-14 21:30N 26°05' W 080°07'0 0.0
2018-Feb-14 21:00N 26°05' W 080°07'0 0.0
2018-Feb-14 20:30N 26°05' W 080°07'0 0.0
2018-Feb-14 20:00N 26°05' W 080°07'0 0.0
2018-Feb-14 19:30N 26°05' W 080°07'0 0.0
2018-Feb-14 19:00N 26°05' W 080°07'0 0.0
2018-Feb-14 18:30N 26°05' W 080°07'0 0.0
2018-Feb-14 18:00N 26°05' W 080°07'0 0.0
2018-Feb-14 17:30N 26°05' W 080°07'0 0.0
2018-Feb-14 17:00N 26°05' W 080°07'0 0.0
2018-Feb-14 16:30N 26°05' W 080°07'0 0.0
2018-Feb-14 16:00N 26°05' W 080°07'0 0.0
2018-Feb-14 15:30N 26°05' W 080°07'0 0.0
2018-Feb-14 15:00N 26°05' W 080°07'0 0.0
2018-Feb-14 14:30N 26°05' W 080°07'0 0.0
2018-Feb-14 14:00N 26°05' W 080°07'0 0.0
2018-Feb-14 13:30N 26°05' W 080°07'0 0.0
2018-Feb-14 13:00N 26°05' W 080°07'0 0.3
2018-Feb-14 12:31N 26°05' W 080°07'3 6.2
2018-Feb-14 12:00N 26°05' W 080°04'3 5.5
2018-Feb-14 11:31N 26°06' W 080°01'4 7.9
2018-Feb-14 11:00N 26°04' W 079°56'5 9.8
2018-Feb-14 10:30N 26°04' W 079°51'510.1
2018-Feb-14 10:00N 26°04' W 079°45'510.2
2018-Feb-14 09:30N 26°04' W 079°40'510.1
2018-Feb-14 09:00N 26°04' W 079°34'  

Dump ship's entire track history